Time;durP1;ratioP1;P1;durP2;ratioP2;P2;SDS_P1;SDS_P2;PMS_P1;PMS_P2;Temp;Humidity;BMP_temperature;BMP_pressure;BME280_temperature;BME280_humidity;BME280_pressure;Samples;Min_cycle;Max_cycle;Signal;HPM_P1;HPM_P2
2022/01/02 00:01:49;;;;;;;12.53;7.10;;;21.00;56.50;;;;;;4970069;28;20404;-75
2022/01/02 00:04:21;;;;;;;13.33;8.20;;;21.00;56.50;;;;;;4969045;28;20478;-76
2022/01/02 00:06:53;;;;;;;12.07;6.80;;;21.20;56.60;;;;;;4968757;28;20508;-76
2022/01/02 00:09:31;;;;;;;10.57;7.23;;;20.40;56.20;;;;;;4969951;28;20438;-76
2022/01/02 00:12:10;;;;;;;12.63;7.40;;;21.00;56.50;;;;;;4981514;28;20433;-75
2022/01/02 00:14:37;;;;;;;12.03;6.90;;;20.90;56.40;;;;;;4967379;28;20421;-76
2022/01/02 00:17:05;;;;;;;10.87;6.63;;;20.90;56.50;;;;;;4967287;28;20422;-75
2022/01/02 00:19:32;;;;;;;10.23;6.57;;;20.90;56.40;;;;;;4984591;28;20466;-76
2022/01/02 00:22:01;;;;;;;17.60;6.40;;;20.90;56.50;;;;;;4973029;28;20410;-75
2022/01/02 00:24:29;;;;;;;15.70;7.80;;;20.90;56.50;;;;;;4973913;28;20410;-75
2022/01/02 00:26:56;;;;;;;9.53;6.27;;;19.70;55.80;;;;;;4968990;28;20521;-76
2022/01/02 00:29:23;;;;;;;12.93;6.13;;;20.90;56.50;;;;;;4972314;28;20614;-75
2022/01/02 00:31:49;;;;;;;6.90;5.23;;;20.90;56.50;;;;;;4973410;28;20980;-76
2022/01/02 00:34:15;;;;;;;9.33;6.43;;;20.90;56.40;;;;;;4972036;28;20430;-75
2022/01/02 00:36:40;;;;;;;10.17;6.27;;;20.90;56.50;;;;;;4973309;28;20881;-75
2022/01/02 00:39:07;;;;;;;10.27;5.80;;;20.90;67.50;;;;;;4973337;28;20569;-76
2022/01/02 00:41:35;;;;;;;10.23;6.23;;;20.90;56.50;;;;;;4973631;28;20206;-75
2022/01/02 00:44:06;;;;;;;11.13;6.50;;;21.10;56.50;;;;;;4973220;28;20517;-76
2022/01/02 00:46:34;;;;;;;8.93;5.67;;;20.90;67.70;;;;;;4971990;28;20422;-76
2022/01/02 00:49:04;;;;;;;11.20;6.37;;;20.90;68.00;;;;;;4971094;28;20448;-76
2022/01/02 00:51:47;;;;;;;9.77;6.40;;;20.90;56.40;;;;;;4972542;28;20426;-75
2022/01/02 00:54:18;;;;;;;12.33;7.27;;;20.90;56.30;;;;;;4972901;28;20433;-76
2022/01/02 00:56:45;;;;;;;11.20;6.27;;;20.90;56.30;;;;;;4972657;28;20433;-76
2022/01/02 00:59:28;;;;;;;9.77;6.17;;;21.10;56.40;;;;;;4977032;28;20471;-75
2022/01/02 01:02:02;;;;;;;8.23;5.97;;;20.90;56.20;;;;;;4966195;28;20421;-75
2022/01/02 01:04:34;;;;;;;9.00;6.77;;;21.10;56.40;;;;;;4973017;28;20404;-75
2022/01/02 01:07:05;;;;;;;10.30;5.63;;;20.90;56.20;;;;;;4972758;28;20430;-75
2022/01/02 01:09:32;;;;;;;10.80;6.63;;;20.90;56.20;;;;;;4972421;28;20445;-76
2022/01/02 01:11:59;;;;;;;8.10;5.70;;;20.50;56.00;;;;;;4973152;28;20421;-76
2022/01/02 01:14:27;;;;;;;7.40;5.80;;;21.40;56.40;;;;;;4973053;28;20898;-75
2022/01/02 01:16:53;;;;;;;12.97;6.23;;;20.90;56.20;;;;;;4973214;28;20428;-76
2022/01/02 01:19:19;;;;;;;11.83;6.07;;;20.90;56.20;;;;;;4972754;28;20548;-76
2022/01/02 01:21:46;;;;;;;11.57;6.73;;;20.90;56.20;;;;;;4973173;28;20545;-76
2022/01/02 01:24:12;;;;;;;8.77;5.80;;;20.80;56.20;;;;;;4972783;28;20421;-75
2022/01/02 01:26:39;;;;;;;8.50;5.07;;;20.80;56.10;;;;;;4972869;28;20414;-75
2022/01/02 01:29:05;;;;;;;10.43;6.50;;;20.90;66.80;;;;;;4972686;28;20175;-76
2022/01/02 01:31:31;;;;;;;10.50;6.43;;;20.80;56.20;;;;;;4972762;28;20410;-75
2022/01/02 01:33:56;;;;;;;7.47;5.63;;;20.80;57.00;;;;;;4971967;28;20249;-76
2022/01/02 01:36:22;;;;;;;8.13;5.80;;;20.80;56.10;;;;;;4972799;28;20654;-75
2022/01/02 01:38:47;;;;;;;9.23;6.10;;;20.80;56.10;;;;;;4972468;28;20622;-76
2022/01/02 01:41:34;;;;;;;10.00;6.03;;;20.80;56.20;;;;;;4972296;28;20253;-76
2022/01/02 01:46:39;;;;;;;6.87;5.23;;;21.00;56.20;;;;;;4973097;28;20454;-75
2022/01/02 01:49:20;;;;;;;10.30;5.53;;;20.70;67.10;;;;;;4972386;28;20640;-76
2022/01/02 01:51:46;;;;;;;8.10;5.70;;;21.10;56.30;;;;;;4972638;28;20419;-76
2022/01/02 01:54:12;;;;;;;8.67;5.63;;;20.90;56.10;;;;;;4972326;28;20429;-75
2022/01/02 01:56:39;;;;;;;6.97;5.33;;;20.80;56.10;;;;;;4972389;28;20461;-75
2022/01/02 01:59:06;;;;;;;9.00;6.07;;;20.70;67.10;;;;;;4976808;28;21229;-76
2022/01/02 02:01:32;;;;;;;9.60;5.80;;;20.80;56.10;;;;;;4991894;28;20406;-76
2022/01/02 02:03:58;;;;;;;11.43;5.67;;;20.90;56.10;;;;;;4991845;28;20401;-76
2022/01/02 02:06:24;;;;;;;9.90;5.80;;;20.80;56.10;;;;;;5006509;28;20926;-76
2022/01/02 02:08:53;;;;;;;6.97;5.07;;;20.80;62.80;;;;;;4991396;28;20178;-76
2022/01/02 02:11:23;;;;;;;6.23;5.40;;;20.80;56.10;;;;;;4991462;28;20417;-76
2022/01/02 02:13:49;;;;;;;8.53;5.23;;;20.80;56.80;;;;;;4991394;28;20429;-75
2022/01/02 02:16:15;;;;;;;8.33;5.70;;;20.80;56.20;;;;;;4991365;28;20855;-76
2022/01/02 02:18:40;;;;;;;6.77;5.27;;;20.80;56.10;;;;;;4991063;28;20201;-76
2022/01/02 02:21:06;;;;;;;9.33;6.07;;;20.80;56.10;;;;;;4989604;28;20198;-75
2022/01/02 02:23:32;;;;;;;5.50;4.70;;;20.90;56.10;;;;;;4990969;28;20283;-75
2022/01/02 02:25:57;;;;;;;9.07;5.30;;;20.80;56.10;;;;;;4991100;28;20193;-75
2022/01/02 02:28:26;;;;;;;6.90;4.67;;;20.80;56.10;;;;;;4991057;28;20181;-76
2022/01/02 02:30:53;;;;;;;9.87;5.17;;;20.80;56.10;;;;;;4991328;28;20190;-75
2022/01/02 02:33:19;;;;;;;10.10;5.70;;;20.70;56.10;;;;;;4989693;28;20438;-75
2022/01/02 02:35:47;;;;;;;9.17;5.50;;;20.70;56.10;;;;;;4990960;28;20421;-75
2022/01/02 02:38:14;;;;;;;7.20;4.63;;;20.70;56.10;;;;;;4990770;28;20464;-76
2022/01/02 02:40:41;;;;;;;5.97;4.80;;;20.70;56.10;;;;;;4991040;28;20436;-75
2022/01/02 02:43:27;;;;;;;8.73;5.30;;;20.70;56.10;;;;;;4990805;28;20462;-75
2022/01/02 02:52:24;;;;;;;7.00;4.90;;;20.70;56.10;;;;;;4990959;28;20528;-76
2022/01/02 02:54:23;;;;;;;7.17;5.20;;;20.70;56.10;;;;;;4986566;28;20538;-76
2022/01/02 02:57:00;;;;;;;6.23;4.80;;;20.70;56.10;;;;;;4989247;28;20441;-76
2022/01/02 02:59:29;;;;;;;9.87;5.60;;;21.00;56.20;;;;;;4983073;28;20553;-76
2022/01/02 03:01:55;;;;;;;6.77;4.30;;;20.80;56.10;;;;;;4969672;28;20418;-75
2022/01/02 03:04:21;;;;;;;6.90;5.40;;;20.50;56.00;;;;;;4970800;28;20406;-76
2022/01/02 03:06:47;;;;;;;7.20;4.73;;;20.70;56.10;;;;;;4969841;28;20489;-76
2022/01/02 03:09:13;;;;;;;7.40;4.30;;;20.70;56.10;;;;;;4970882;28;20434;-76
2022/01/02 03:11:41;;;;;;;6.30;4.30;;;20.70;56.10;;;;;;4970864;28;20617;-75
2022/01/02 03:14:09;;;;;;;7.40;5.10;;;21.00;56.30;;;;;;4971081;28;20787;-75
2022/01/02 03:16:36;;;;;;;9.67;5.40;;;20.70;56.10;;;;;;4970742;28;20438;-76
2022/01/02 03:19:02;;;;;;;4.77;4.17;;;20.60;67.00;;;;;;4969183;28;20469;-76
2022/01/02 03:21:28;;;;;;;6.60;4.63;;;20.70;56.20;;;;;;4969091;28;20411;-76
2022/01/02 03:23:53;;;;;;;6.93;5.50;;;20.60;56.00;;;;;;4970920;28;20512;-76
2022/01/02 03:26:19;;;;;;;6.57;4.83;;;20.70;56.10;;;;;;4970560;28;20198;-75
2022/01/02 03:28:46;;;;;;;4.43;3.77;;;20.70;56.10;;;;;;4970350;28;20233;-75
2022/01/02 03:31:11;;;;;;;5.37;4.43;;;20.70;56.70;;;;;;4970414;28;20257;-76
2022/01/02 03:33:37;;;;;;;7.10;4.80;;;20.70;56.10;;;;;;4970320;28;20505;-75
2022/01/02 03:36:03;;;;;;;5.10;4.60;;;20.70;56.10;;;;;;4970364;28;20178;-75
2022/01/02 03:38:29;;;;;;;8.70;4.73;;;20.70;56.00;;;;;;4970351;28;20198;-76
2022/01/02 03:40:54;;;;;;;5.27;4.43;;;21.00;56.20;;;;;;4970218;28;20524;-76
2022/01/02 03:43:20;;;;;;;5.33;4.60;;;21.00;56.20;;;;;;4970237;28;20275;-75
2022/01/02 03:45:45;;;;;;;5.00;4.53;;;20.90;56.20;;;;;;4970380;28;20853;-75
2022/01/02 03:48:11;;;;;;;5.00;4.40;;;20.70;56.10;;;;;;4970205;28;20204;-76
2022/01/02 03:50:37;;;;;;;6.90;4.87;;;20.60;56.00;;;;;;4970234;28;20308;-75
2022/01/02 03:53:03;;;;;;;5.20;4.70;;;20.60;56.00;;;;;;4970205;28;20253;-75
2022/01/02 03:55:29;;;;;;;5.67;4.50;;;20.70;56.10;;;;;;4969894;28;20190;-76
2022/01/02 03:57:55;;;;;;;5.10;4.47;;;20.60;56.00;;;;;;4970112;28;20454;-76
2022/01/02 04:00:20;;;;;;;8.40;4.73;;;20.90;56.20;;;;;;4984830;28;20195;-75
2022/01/02 04:02:46;;;;;;;4.53;4.13;;;20.60;56.00;;;;;;4989556;28;20198;-76
2022/01/02 04:05:14;;;;;;;7.70;4.90;;;20.60;56.00;;;;;;4989658;28;20204;-75
2022/01/02 04:07:40;;;;;;;8.30;5.00;;;20.70;56.10;;;;;;4989512;28;20236;-76
2022/01/02 04:10:08;;;;;;;4.30;3.90;;;21.30;56.40;;;;;;4989444;28;20467;-75
2022/01/02 04:12:35;;;;;;;4.83;4.40;;;20.60;56.00;;;;;;4989469;28;20414;-74
2022/01/02 04:15:03;;;;;;;7.30;4.63;;;20.50;56.00;;;;;;4989609;28;20500;-76
2022/01/02 04:17:28;;;;;;;5.40;4.43;;;20.60;56.10;;;;;;4989432;28;20765;-75
2022/01/02 04:19:54;;;;;;;6.30;4.60;;;20.60;56.10;;;;;;4989285;28;20480;-76
2022/01/02 04:22:21;;;;;;;4.70;4.27;;;20.60;56.10;;;;;;4989515;28;20205;-76
2022/01/02 04:24:48;;;;;;;7.03;5.40;;;20.60;56.10;;;;;;4989368;28;20181;-76
2022/01/02 04:27:14;;;;;;;6.17;4.43;;;20.60;56.10;;;;;;4989497;28;20881;-75
2022/01/02 04:29:39;;;;;;;6.93;4.70;;;21.30;56.50;;;;;;4989158;28;20528;-75
2022/01/02 04:32:05;;;;;;;7.70;5.03;;;20.70;56.10;;;;;;4987706;28;20182;-75
2022/01/02 04:34:30;;;;;;;6.07;5.00;;;20.60;56.00;;;;;;4969408;28;20183;-76
2022/01/02 04:36:56;;;;;;;4.23;3.60;;;20.60;56.10;;;;;;4969634;28;20187;-75
2022/01/02 04:39:21;;;;;;;7.50;4.10;;;20.60;56.00;;;;;;4969384;28;20264;-75
2022/01/02 04:41:47;;;;;;;5.27;3.90;;;20.60;56.10;;;;;;4969669;28;20250;-75
2022/01/02 04:44:13;;;;;;;5.10;4.60;;;;;;;;;;4969784;28;20266;-76
2022/01/02 04:46:38;;;;;;;5.37;4.50;;;20.60;55.50;;;;;;4969535;28;20622;-75
2022/01/02 04:49:04;;;;;;;6.00;4.20;;;20.80;67.60;;;;;;4969294;28;20504;-75
2022/01/02 04:51:29;;;;;;;4.73;4.07;;;20.60;56.10;;;;;;4969636;28;20246;-76
2022/01/02 04:53:55;;;;;;;5.90;4.63;;;20.60;56.10;;;;;;4969613;28;20205;-75
2022/01/02 04:56:21;;;;;;;7.80;4.17;;;20.60;56.10;;;;;;4968438;28;20189;-75
2022/01/02 04:58:46;;;;;;;7.00;4.50;;;20.60;56.10;;;;;;4971597;28;20210;-76
2022/01/02 05:01:14;;;;;;;6.30;4.77;;;20.60;56.10;;;;;;4988825;28;20381;-76
2022/01/02 05:03:42;;;;;;;5.33;3.90;;;20.90;56.20;;;;;;4988881;28;20178;-75
2022/01/02 05:06:09;;;;;;;4.57;3.87;;;20.60;56.00;;;;;;4989135;28;20803;-76
2022/01/02 05:08:35;;;;;;;6.60;4.20;;;20.60;56.00;;;;;;4990841;28;20421;-76
2022/01/02 05:11:01;;;;;;;4.93;4.43;;;20.60;56.10;;;;;;4992467;28;20571;-75
2022/01/02 05:13:26;;;;;;;4.10;3.70;;;20.90;56.20;;;;;;4992311;28;20178;-75
2022/01/02 05:15:52;;;;;;;4.40;4.00;;;20.50;56.10;;;;;;4992494;28;20789;-75
2022/01/02 05:18:19;;;;;;;6.70;4.53;;;21.00;56.30;;;;;;4990870;28;20247;-75
2022/01/02 05:20:46;;;;;;;4.27;3.87;;;20.60;56.10;;;;;;4992634;28;20194;-75
2022/01/02 05:23:13;;;;;;;5.10;4.07;;;20.60;56.10;;;;;;4993037;28;20470;-75
2022/01/02 05:25:39;;;;;;;4.33;4.03;;;20.60;56.10;;;;;;4992340;28;20412;-74
2022/01/02 05:28:04;;;;;;;5.63;4.17;;;20.60;56.10;;;;;;4992221;28;20420;-75
2022/01/02 05:30:30;;;;;;;5.60;4.17;;;20.60;56.10;;;;;;5006687;28;20711;-76
2022/01/02 05:32:55;;;;;;;4.97;3.90;;;20.50;56.10;;;;;;4990548;28;20182;-75
2022/01/02 05:35:21;;;;;;;4.80;4.07;;;20.30;55.90;;;;;;4992041;28;20178;-75
2022/01/02 05:37:46;;;;;;;4.53;4.07;;;20.60;56.10;;;;;;4991972;28;20260;-75
2022/01/02 05:40:12;;;;;;;4.67;3.70;;;20.60;56.10;;;;;;4976820;28;20287;-76
2022/01/02 05:42:41;;;;;;;4.47;3.33;;;20.50;56.10;;;;;;4972286;28;20206;-76
2022/01/02 05:45:07;;;;;;;4.17;3.80;;;20.60;56.10;;;;;;4972123;28;20676;-76
2022/01/02 05:47:32;;;;;;;5.40;3.80;;;20.70;56.10;;;;;;4972052;28;20510;-76
2022/01/02 05:50:01;;;;;;;3.23;2.97;;;20.70;56.20;;;;;;4972136;28;20557;-76
2022/01/02 05:52:26;;;;;;;4.57;3.70;;;20.90;56.20;;;;;;4972216;28;20538;-76
2022/01/02 05:54:52;;;;;;;4.40;3.80;;;20.50;56.00;;;;;;4972367;28;20452;-76
2022/01/02 05:57:17;;;;;;;4.33;3.93;;;20.50;56.00;;;;;;4972367;28;20204;-76
2022/01/02 05:59:43;;;;;;;3.80;3.40;;;20.70;56.10;;;;;;4981706;28;20218;-75
2022/01/02 06:02:09;;;;;;;3.83;3.17;;;20.80;56.20;;;;;;4991641;28;20221;-76
2022/01/02 06:04:34;;;;;;;5.90;4.10;;;20.50;56.10;;;;;;4991409;28;20209;-75
2022/01/02 06:07:00;;;;;;;4.50;3.67;;;20.50;56.00;;;;;;4991458;28;20618;-75
2022/01/02 06:09:26;;;;;;;3.57;3.27;;;20.50;56.10;;;;;;4991307;28;20274;-75
2022/01/02 06:11:52;;;;;;;7.90;4.33;;;20.60;56.10;;;;;;4991460;28;20437;-76
2022/01/02 06:14:17;;;;;;;4.97;3.63;;;20.50;56.00;;;;;;4989986;28;20182;-76
2022/01/02 06:16:43;;;;;;;3.40;3.10;;;20.50;56.00;;;;;;4991382;28;20194;-76
2022/01/02 06:19:08;;;;;;;3.63;3.43;;;20.50;67.30;;;;;;4990949;28;20284;-76
2022/01/02 06:21:34;;;;;;;3.70;3.37;;;20.50;56.00;;;;;;4991258;28;20653;-75
2022/01/02 06:23:59;;;;;;;4.20;3.80;;;20.60;56.10;;;;;;4991170;28;20185;-75
2022/01/02 06:26:25;;;;;;;4.03;3.10;;;20.50;56.10;;;;;;4991291;28;20174;-76
2022/01/02 06:28:50;;;;;;;4.23;3.67;;;20.60;66.60;;;;;;4991070;28;20559;-75
2022/01/02 06:31:16;;;;;;;3.30;3.10;;;20.50;56.10;;;;;;4991079;28;20196;-76
2022/01/02 06:33:41;;;;;;;4.23;3.93;;;20.70;56.20;;;;;;4990965;28;20277;-76
2022/01/02 06:36:07;;;;;;;3.53;3.20;;;20.50;56.00;;;;;;4991039;28;20189;-76
2022/01/02 06:38:32;;;;;;;6.17;3.80;;;20.60;56.10;;;;;;4988738;28;20206;-75
2022/01/02 06:40:58;;;;;;;4.40;3.80;;;20.50;56.00;;;;;;4990414;28;20197;-76
2022/01/02 06:43:24;;;;;;;4.37;4.07;;;20.70;56.10;;;;;;4990271;28;20182;-76
2022/01/02 06:45:49;;;;;;;4.37;4.00;;;20.50;56.00;;;;;;4990385;28;20347;-76
2022/01/02 06:48:15;;;;;;;3.20;3.00;;;20.50;56.10;;;;;;4990082;28;20182;-76
2022/01/02 06:50:40;;;;;;;3.80;3.50;;;20.50;56.00;;;;;;4990273;28;20704;-76
2022/01/02 06:53:07;;;;;;;3.60;3.23;;;20.50;56.00;;;;;;4989987;28;20499;-76
2022/01/02 06:55:32;;;;;;;3.70;3.40;;;20.50;56.00;;;;;;4990200;28;20745;-76
2022/01/02 06:57:58;;;;;;;3.40;3.10;;;20.50;56.10;;;;;;4990117;28;20449;-76
2022/01/02 07:00:24;;;;;;;4.63;3.93;;;20.50;56.00;;;;;;4974725;28;20241;-75
2022/01/02 07:02:49;;;;;;;4.67;3.83;;;20.50;56.60;;;;;;4970582;28;20186;-75
2022/01/02 07:05:15;;;;;;;3.53;3.27;;;20.80;56.20;;;;;;4970334;28;20398;-76
2022/01/02 07:07:42;;;;;;;3.50;3.20;;;20.40;56.00;;;;;;4969915;28;20539;-76
2022/01/02 07:10:09;;;;;;;3.00;2.80;;;20.80;56.20;;;;;;4970371;28;20194;-75
2022/01/02 07:12:36;;;;;;;3.60;3.30;;;20.50;56.00;;;;;;4970278;28;20742;-76
2022/01/02 07:15:02;;;;;;;3.77;3.47;;;20.50;56.00;;;;;;4970355;28;20406;-75
2022/01/02 07:17:28;;;;;;;3.40;3.10;;;20.50;56.10;;;;;;4968661;28;20445;-75
2022/01/02 07:19:53;;;;;;;4.27;3.73;;;20.50;56.10;;;;;;4969533;28;20598;-76
2022/01/02 07:22:19;;;;;;;2.93;2.73;;;20.60;56.10;;;;;;4970158;28;20198;-76
2022/01/02 07:24:50;;;;;;;3.93;3.60;;;20.70;56.10;;;;;;4970183;28;20178;-75
2022/01/02 07:27:16;;;;;;;3.63;3.33;;;20.50;56.10;;;;;;4970103;28;20244;-76
2022/01/02 07:29:42;;;;;;;4.00;3.67;;;20.60;56.10;;;;;;4967813;28;20430;-76
2022/01/02 07:32:07;;;;;;;3.63;3.30;;;20.60;56.10;;;;;;4967819;28;20800;-75
2022/01/02 07:34:33;;;;;;;3.33;2.97;;;21.50;56.50;;;;;;4967711;28;20187;-76
2022/01/02 07:36:58;;;;;;;3.60;3.30;;;20.60;56.10;;;;;;4972775;28;20253;-76
2022/01/02 07:39:24;;;;;;;4.70;3.20;;;20.60;56.10;;;;;;4969734;28;20214;-76
2022/01/02 07:41:50;;;;;;;3.37;3.17;;;20.60;56.10;;;;;;4971371;28;20283;-76
2022/01/02 07:44:16;;;;;;;3.00;2.80;;;20.90;56.30;;;;;;4970263;28;20171;-76
2022/01/02 07:46:41;;;;;;;4.40;3.83;;;20.90;56.90;;;;;;4970031;28;20185;-76
2022/01/02 07:49:07;;;;;;;3.33;3.13;;;20.40;66.90;;;;;;4969696;28;20933;-75
2022/01/02 07:51:32;;;;;;;4.03;3.17;;;20.70;56.20;;;;;;4970116;28;20182;-75
2022/01/02 07:54:01;;;;;;;3.27;3.07;;;20.60;56.10;;;;;;4970098;28;20190;-76
2022/01/02 07:56:27;;;;;;;3.67;3.40;;;20.60;56.10;;;;;;4969966;28;20206;-75
2022/01/02 07:58:52;;;;;;;3.10;2.90;;;20.80;63.10;;;;;;4972652;28;20789;-76
2022/01/02 08:01:19;;;;;;;3.47;2.83;;;20.90;56.30;;;;;;4973946;28;20410;-76
2022/01/02 08:03:45;;;;;;;4.20;3.37;;;20.80;56.20;;;;;;4969896;28;20265;-75
2022/01/02 08:06:10;;;;;;;2.93;2.73;;;21.00;56.30;;;;;;4968772;28;20651;-75
2022/01/02 08:08:36;;;;;;;3.20;2.90;;;20.60;56.50;;;;;;4969972;28;20272;-75
2022/01/02 08:11:01;;;;;;;3.23;2.93;;;20.60;56.00;;;;;;4971013;28;20293;-75
2022/01/02 08:13:27;;;;;;;5.17;3.17;;;20.80;56.10;;;;;;4970499;28;20182;-75
2022/01/02 08:15:53;;;;;;;3.40;3.10;;;20.80;56.20;;;;;;4970322;28;20178;-74
2022/01/02 08:18:18;;;;;;;4.97;3.40;;;20.70;56.10;;;;;;4970037;28;20214;-74
2022/01/02 08:20:47;;;;;;;3.30;3.10;;;21.00;56.20;;;;;;4970236;28;20234;-75
2022/01/02 08:23:14;;;;;;;3.07;2.70;;;20.60;56.00;;;;;;4970668;28;20178;-76
2022/01/02 08:25:40;;;;;;;2.93;2.73;;;20.60;56.00;;;;;;4972569;28;20432;-74
2022/01/02 08:28:06;;;;;;;3.27;3.07;;;20.60;56.00;;;;;;4970863;28;20430;-76
2022/01/02 08:30:31;;;;;;;3.40;3.07;;;21.00;56.20;;;;;;4972391;28;20213;-75
2022/01/02 08:32:57;;;;;;;3.30;3.00;;;20.60;56.00;;;;;;4971339;28;20279;-76
2022/01/02 08:35:23;;;;;;;3.03;2.83;;;20.70;56.00;;;;;;4971978;28;20257;-76
2022/01/02 08:37:48;;;;;;;2.87;2.67;;;20.80;56.10;;;;;;4972111;28;20187;-76
2022/01/02 08:40:14;;;;;;;3.00;2.70;;;20.70;56.00;;;;;;4972395;28;20426;-76
2022/01/02 08:42:40;;;;;;;2.60;2.50;;;20.70;56.00;;;;;;4973499;28;20225;-76
2022/01/02 08:45:06;;;;;;;2.60;2.40;;;20.70;56.00;;;;;;4978788;28;20182;-76
2022/01/02 08:47:33;;;;;;;4.23;3.43;;;20.70;56.00;;;;;;4973979;28;20214;-76
2022/01/02 08:49:59;;;;;;;3.20;2.80;;;20.60;56.10;;;;;;4973952;28;20505;-76
2022/01/02 08:52:24;;;;;;;2.90;2.70;;;20.70;56.00;;;;;;4972613;28;20426;-75
2022/01/02 08:54:50;;;;;;;3.40;3.10;;;20.60;56.60;;;;;;4973659;28;20197;-76
2022/01/02 08:57:16;;;;;;;3.17;2.90;;;20.90;56.10;;;;;;4973935;28;20301;-75
2022/01/02 08:59:42;;;;;;;3.07;2.83;;;21.50;56.40;;;;;;4983259;28;20469;-76
2022/01/02 09:02:07;;;;;;;3.03;2.83;;;20.70;56.00;;;;;;4977446;28;20437;-76
2022/01/02 09:04:34;;;;;;;3.50;2.70;;;20.70;56.00;;;;;;4972946;28;20207;-76
2022/01/02 09:07:01;;;;;;;2.70;2.60;;;20.70;56.00;;;;;;4972504;28;20195;-75
2022/01/02 09:09:27;;;;;;;5.93;2.90;;;;;;;;;;4971453;28;20438;-75
2022/01/02 09:11:53;;;;;;;4.93;3.10;;;21.50;55.90;;;;;;4973350;28;20761;-76
2022/01/02 09:14:19;;;;;;;4.57;2.67;;;20.80;56.00;;;;;;4972781;28;20437;-76
2022/01/02 09:16:45;;;;;;;2.20;2.10;;;20.70;55.90;;;;;;4973199;28;20182;-76
2022/01/02 09:19:12;;;;;;;3.67;2.80;;;20.70;55.90;;;;;;4973364;28;20500;-75
2022/01/02 09:21:37;;;;;;;2.37;2.27;;;20.70;55.90;;;;;;4972559;28;20260;-75
2022/01/02 09:24:04;;;;;;;2.57;2.37;;;21.00;56.10;;;;;;4972767;28;21009;-76
2022/01/02 09:26:30;;;;;;;2.73;2.60;;;20.80;56.00;;;;;;4972042;28;20289;-76
2022/01/02 09:28:55;;;;;;;2.57;2.37;;;20.90;62.50;;;;;;4972373;28;20453;-76
2022/01/02 09:31:21;;;;;;;2.67;2.47;;;20.70;56.00;;;;;;4972475;28;20175;-75
2022/01/02 09:33:47;;;;;;;3.17;2.40;;;20.70;56.00;;;;;;4972755;28;20194;-76
2022/01/02 09:36:13;;;;;;;3.60;3.17;;;21.00;56.10;;;;;;4972892;28;20832;-73
2022/01/02 09:38:38;;;;;;;4.67;4.37;;;20.90;56.00;;;;;;4972604;28;20261;-73
2022/01/02 09:41:05;;;;;;;6.10;5.60;;;20.70;54.80;;;;;;4972611;28;20199;-76
2022/01/02 09:43:31;;;;;;;7.10;6.40;;;20.80;51.50;;;;;;4971727;28;20278;-76
2022/01/02 09:45:59;;;;;;;6.57;5.70;;;20.30;49.30;;;;;;4971500;28;20509;-76
2022/01/02 09:48:26;;;;;;;7.40;6.53;;;20.10;49.70;;;;;;4971828;28;20411;-76
2022/01/02 09:50:52;;;;;;;10.63;8.27;;;19.70;48.90;;;;;;4971902;28;21003;-76
2022/01/02 09:53:18;;;;;;;12.80;8.33;;;19.40;49.10;;;;;;4971145;28;20442;-76
2022/01/02 09:55:43;;;;;;;9.30;7.50;;;19.40;49.50;;;;;;4971052;28;20245;-76
2022/01/02 09:58:13;;;;;;;9.90;6.70;;;18.60;49.20;;;;;;4971320;28;20812;-75
2022/01/02 10:00:44;;;;;;;7.10;6.40;;;19.20;50.80;;;;;;4979395;28;20206;-76
2022/01/02 10:03:13;;;;;;;7.20;6.53;;;18.20;51.30;;;;;;4972292;28;20426;-75
2022/01/02 10:05:49;;;;;;;7.73;6.93;;;18.40;52.20;;;;;;4972399;28;20428;-75
2022/01/02 10:08:30;;;;;;;12.73;4.80;;;18.30;52.90;;;;;;4971945;28;20932;-75
2022/01/02 10:11:00;;;;;;;5.47;4.97;;;18.80;67.80;;;;;;4970588;28;20450;-76
2022/01/02 10:13:39;;;;;;;6.17;4.43;;;18.80;53.90;;;;;;4971940;28;20528;-76
2022/01/02 10:16:20;;;;;;;7.00;5.13;;;18.90;54.20;;;;;;4971804;28;20503;-76
2022/01/02 10:18:48;;;;;;;5.30;4.73;;;20.60;55.30;;;;;;4971567;28;20469;-75
2022/01/02 10:21:27;;;;;;;7.70;4.90;;;19.20;54.60;;;;;;4971567;28;20438;-76
2022/01/02 10:24:10;;;;;;;4.47;4.10;;;19.20;54.60;;;;;;4971810;28;20473;-75
2022/01/02 10:26:35;;;;;;;12.70;4.50;;;19.20;54.70;;;;;;4971935;28;20410;-75
2022/01/02 10:29:10;;;;;;;4.43;4.03;;;19.30;67.70;;;;;;4971821;28;20428;-75
2022/01/02 10:31:35;;;;;;;5.37;4.83;;;19.40;54.80;;;;;;4974365;28;20576;-75
2022/01/02 10:34:01;;;;;;;5.30;4.90;;;19.40;54.80;;;;;;4976468;28;20509;-76
2022/01/02 10:36:28;;;;;;;4.60;4.20;;;20.00;55.10;;;;;;4974232;28;20186;-76
2022/01/02 10:39:15;;;;;;;6.97;6.23;;;19.50;63.20;;;;;;4970741;28;20234;-75
2022/01/02 10:41:46;;;;;;;5.90;4.93;;;19.50;54.80;;;;;;4970401;28;20473;-76
2022/01/02 10:44:21;;;;;;;5.17;4.67;;;19.70;55.00;;;;;;4968631;28;20480;-76
2022/01/02 10:47:20;;;;;;;4.33;4.03;;;19.60;54.90;;;;;;4970851;28;20454;-75
2022/01/02 10:50:03;;;;;;;4.70;3.60;;;19.60;54.90;;;;;;4985357;28;20515;-75
2022/01/02 10:52:42;;;;;;;4.40;4.00;;;19.60;54.90;;;;;;4970065;28;20436;-76
2022/01/02 10:55:22;;;;;;;6.93;4.67;;;20.00;55.10;;;;;;4965337;28;20817;-75
2022/01/02 10:57:50;;;;;;;3.73;3.47;;;19.70;55.00;;;;;;4970468;28;20421;-76
2022/01/02 11:00:18;;;;;;;6.83;4.60;;;19.80;55.00;;;;;;4975898;28;20468;-75
2022/01/02 11:02:45;;;;;;;3.70;3.43;;;20.10;55.10;;;;;;4970326;28;20441;-75
2022/01/02 11:05:13;;;;;;;4.20;3.90;;;19.70;54.90;;;;;;4970123;28;20533;-76
2022/01/02 11:07:42;;;;;;;3.57;3.27;;;19.80;54.90;;;;;;4971038;28;20417;-75
2022/01/02 11:10:10;;;;;;;4.50;4.20;;;19.80;54.90;;;;;;4970932;28;20434;-76
2022/01/02 11:12:41;;;;;;;4.43;4.03;;;19.90;55.00;;;;;;4969094;28;20587;-75
2022/01/02 11:15:09;;;;;;;4.23;3.93;;;20.50;55.30;;;;;;4970831;28;20428;-75
2022/01/02 11:17:36;;;;;;;4.43;4.07;;;19.90;55.00;;;;;;4971429;28;20737;-75
2022/01/02 11:20:08;;;;;;;3.93;3.73;;;21.40;55.80;;;;;;4970488;28;20470;-75
2022/01/02 11:22:58;;;;;;;3.57;3.27;;;19.90;55.00;;;;;;4971797;28;20548;-75
2022/01/02 11:25:51;;;;;;;3.80;3.60;;;19.90;55.00;;;;;;4968629;28;20418;-76
2022/01/02 11:28:35;;;;;;;4.13;3.83;;;19.90;55.00;;;;;;4980998;28;20449;-75
2022/01/02 11:31:03;;;;;;;3.30;3.10;;;20.00;55.00;;;;;;4968299;28;20453;-76
2022/01/02 11:33:40;;;;;;;3.97;3.63;;;20.20;55.10;;;;;;4969294;28;20457;-75
2022/01/02 11:36:40;;;;;;;4.17;3.73;;;20.30;55.20;;;;;;4979551;28;20425;-74
2022/01/02 11:39:08;;;;;;;6.87;5.00;;;19.80;67.30;;;;;;4972118;28;21027;-75
2022/01/02 11:41:54;;;;;;;3.87;3.57;;;19.90;55.00;;;;;;4971106;28;20426;-76
2022/01/02 11:44:49;;;;;;;4.13;3.60;;;20.00;55.10;;;;;;4972955;28;20420;-76
2022/01/02 11:47:41;;;;;;;5.23;4.00;;;20.00;55.10;;;;;;4970907;28;20410;-75
2022/01/02 11:50:28;;;;;;;3.50;3.30;;;20.00;55.20;;;;;;4970492;28;20505;-76
2022/01/02 11:53:28;;;;;;;4.23;3.67;;;20.10;55.30;;;;;;4969606;28;20735;-76
2022/01/02 11:55:55;;;;;;;4.00;3.67;;;20.10;55.40;;;;;;4937505;28;20441;-75
2022/01/02 11:58:38;;;;;;;3.93;3.73;;;20.30;55.30;;;;;;4969461;28;20883;-75
2022/01/02 12:01:06;;;;;;;3.70;3.50;;;20.30;55.30;;;;;;4963773;28;20446;-76
2022/01/02 12:03:41;;;;;;;2.90;2.70;;;20.20;55.20;;;;;;4970374;28;20804;-75
2022/01/02 12:06:24;;;;;;;3.73;3.07;;;20.10;67.80;;;;;;4970394;28;20761;-76
2022/01/02 12:08:52;;;;;;;3.93;3.20;;;20.20;55.10;;;;;;4972955;28;20496;-76
2022/01/02 12:11:38;;;;;;;3.07;2.90;;;20.00;55.20;;;;;;4978114;28;20414;-75
2022/01/02 12:14:05;;;;;;;3.90;3.67;;;20.30;55.20;;;;;;4977397;28;20552;-75
2022/01/02 12:16:34;;;;;;;5.30;3.83;;;20.30;55.20;;;;;;4968104;28;20441;-75
2022/01/02 12:19:01;;;;;;;3.10;3.00;;;20.10;63.60;;;;;;4954197;28;20477;-75
2022/01/02 12:21:26;;;;;;;4.40;4.00;;;20.40;55.40;;;;;;4962475;28;20445;-75
2022/01/02 12:23:53;;;;;;;5.57;3.40;;;20.40;55.10;;;;;;4961912;28;21002;-75
2022/01/02 12:26:21;;;;;;;3.87;3.57;;;20.70;55.30;;;;;;4961877;28;20186;-75
2022/01/02 12:28:58;;;;;;;3.10;2.90;;;20.30;55.00;;;;;;4959996;28;20488;-75
2022/01/02 12:31:32;;;;;;;2.80;2.70;;;20.60;55.20;;;;;;4961298;28;20437;-75
2022/01/02 12:34:05;;;;;;;3.40;3.10;;;20.40;55.10;;;;;;4960799;28;20425;-76
2022/01/02 12:36:31;;;;;;;4.07;3.77;;;20.30;55.10;;;;;;4958269;28;20435;-75
2022/01/02 12:38:59;;;;;;;5.17;3.30;;;20.40;63.50;;;;;;4962026;28;20505;-76
2022/01/02 12:41:28;;;;;;;3.47;2.97;;;20.60;55.40;;;;;;4958900;28;20268;-76
2022/01/02 12:44:03;;;;;;;3.60;3.30;;;20.30;55.10;;;;;;4962274;28;20445;-75
2022/01/02 12:46:32;;;;;;;3.50;3.07;;;20.40;55.20;;;;;;4962516;28;20433;-75
2022/01/02 12:48:58;;;;;;;3.37;3.20;;;20.60;63.90;;;;;;4961479;28;20414;-75
2022/01/02 12:51:29;;;;;;;3.47;3.27;;;20.60;55.40;;;;;;4961315;28;20451;-76
2022/01/02 12:54:16;;;;;;;3.23;2.93;;;21.70;56.00;;;;;;4962329;28;20437;-75
2022/01/02 12:56:46;;;;;;;3.13;2.93;;;20.40;55.40;;;;;;4959237;28;20941;-76
2022/01/02 12:59:23;;;;;;;3.40;3.20;;;20.40;69.10;;;;;;4974606;28;20473;-75
2022/01/02 13:02:01;;;;;;;3.20;2.90;;;20.40;55.50;;;;;;4960798;28;20475;-75